Latest Weather Observations for Middle Point

IDD60901

Issued at 1:51 pm CST Thursday 19 January 2017 (issued every 10 minutes, with the page automatically refreshed every 10 minutes)

About weather observations | Map of Darwin area stations | Latest observations for Darwin area | Other Formats
Station Details ID: 014041 Name: MIDDLE POINT Lat: -12.61 Lon: 131.30 Height: 14.1 m
Data from the previous 72 hours. | See also: Recent months at Middle Point
Date/Time
CST
Temp
°C
App
Temp
°C
Dew
Point
°C
Rel
Hum
%
Delta-T
°C
Wind Press
QNH
hPa
Press
MSL
hPa
Rain since
9am
mm
Dir  Spd
km/h
Gust
km/h
Spd
kts
Gust
kts
19/01:30pm 32.0 35.0 21.2 52 7.3 WSW 7 15 4 8 1008.6 1008.5 0.0
19/01:00pm 32.0 34.7 22.1 55 6.7 WSW 11 20 6 11 1009.0 1008.9 0.0
19/12:30pm 31.8 35.7 22.5 58 6.4 WSW 6 13 3 7 1009.3 1009.2 0.0
19/12:00pm 30.7 34.9 23.1 64 5.2 SW 6 15 3 8 1009.7 1009.6 0.0
19/11:30am 30.9 34.4 22.8 62 5.6 SW 9 15 5 8 1009.9 1009.8 0.0
19/11:00am 29.8 32.9 22.8 66 4.8 WSW 11 15 6 8 1010.1 1010.0 0.0
19/10:30am 30.5 34.8 23.7 67 4.7 W 7 13 4 7 1010.2 1010.1 0.0
19/10:00am 28.7 32.5 23.4 73 3.6 NNW 9 15 5 8 1010.4 1010.3 0.0
19/09:30am 28.2 32.1 23.6 76 3.2 NW 9 13 5 7 1010.4 1010.3 0.0
19/09:00am 27.8 31.3 23.6 78 2.9 WNW 11 15 6 8 1010.5 1010.4 1.8
19/08:30am 26.9 32.0 24.0 84 2.0 NNW 4 6 2 3 1010.4 1010.3 1.8
19/08:00am 26.1 31.9 24.0 88 1.4 CALM 0 4 0 2 1010.4 1010.3 1.8
19/07:30am 25.8 31.5 23.7 88 1.4 CALM 0 0 0 0 1010.4 1010.3 1.8
19/07:00am 25.0 30.5 23.4 91 1.1 CALM 0 0 0 0 1010.1 1010.0 1.8
19/06:30am 24.7 29.2 22.9 90 1.2 NW 4 6 2 3 1009.9 1009.8 1.8
19/06:00am 24.9 28.5 23.1 90 1.2 WNW 9 15 5 8 1009.6 1009.5 1.8
19/05:30am 24.9 27.7 23.0 89 1.3 W 13 19 7 10 1009.4 1009.3 1.8
19/05:00am 24.8 29.0 23.2 91 1.1 WSW 6 7 3 4 1009.1 1009.0 1.8
19/04:30am 24.9 30.0 23.3 91 1.1 SW 2 4 1 2 1008.8 1008.7 1.8
19/04:00am 25.0 29.9 23.6 92 1.0 SSW 4 4 2 2 1008.9 1008.8 1.8
19/03:30am 25.0 30.5 23.4 91 1.1 CALM 0 0 0 0 1009.1 1009.0 1.8
19/03:00am 25.0 30.6 23.6 92 1.0 CALM 0 2 0 1 1009.4 1009.3 1.8
19/02:30am 24.9 30.3 23.3 91 1.1 CALM 0 0 0 0 1009.6 1009.5 1.8
19/02:00am 24.9 30.3 23.3 91 1.1 CALM 0 0 0 0 1010.0 1009.9 1.8
19/01:30am 24.9 30.3 23.3 91 1.1 CALM 0 0 0 0 1010.4 1010.3 1.8
19/01:00am 25.0 30.5 23.4 91 1.1 CALM 0 0 0 0 1010.9 1010.7 1.8
19/12:30am 25.0 30.5 23.4 91 1.1 CALM 0 0 0 0 1011.4 1011.2 1.8
19/12:00am 25.2 30.7 23.4 90 1.2 CALM 0 0 0 0 1011.6 1011.4 1.8
 
Date/Time
CST
Temp
°C
App
Temp
°C
Dew
Point
°C
Rel
Hum
%
Delta-T
°C
Wind Press
QNH
hPa
Press
MSL
hPa
Rain since
9am
mm
Dir  Spd
km/h
Gust
km/h
Spd
kts
Gust
kts
18/11:30pm 25.2 30.6 23.3 89 1.3 CALM 0 0 0 0 1011.9 1011.7 1.8
18/11:00pm 25.2 30.6 23.3 89 1.3 CALM 0 0 0 0 1012.1 1011.9 1.8
18/10:30pm 25.2 30.6 23.3 89 1.3 CALM 0 0 0 0 1012.0 1011.8 1.6
18/10:00pm 25.2 30.5 23.1 88 1.4 CALM 0 0 0 0 1012.0 1011.8 1.6
18/09:30pm 25.2 29.4 22.5 85 1.8 WSW 4 7 2 4 1011.5 1011.3 1.6
18/09:00pm 25.2 28.4 22.3 84 1.9 W 9 13 5 7 1011.1 1010.9 1.6
18/08:30pm 25.4 27.8 22.3 83 2.1 W 13 19 7 10 1010.9 1010.7 1.6
18/08:00pm 26.7 28.6 22.8 79 2.6 W 17 28 9 15 1010.4 1010.3 1.6
18/07:30pm 26.6 31.3 24.3 87 1.6 WNW 7 7 4 4 1009.9 1009.8 1.6
18/07:00pm 26.8 31.6 24.1 85 1.9 NW 6 7 3 4 1009.6 1009.5 1.6
18/06:30pm 27.1 31.2 24.0 83 2.1 NNW 9 13 5 7 1009.0 1008.9 1.6
18/06:00pm 27.4 30.9 23.6 80 2.6 NNW 11 19 6 10 1008.8 1008.7 1.6
18/05:30pm 27.5 32.6 24.7 85 2.0 N 6 9 3 5 1008.4 1008.3 1.6
18/05:00pm 26.6 31.9 24.3 87 1.6 NE 4 6 2 3 1008.0 1007.9 1.6
18/04:30pm 25.6 28.6 23.3 87 1.6 NE 13 17 7 9 1008.0 1007.9 1.6
18/04:00pm 25.8 28.2 23.7 88 1.4 NNE 17 24 9 13 1008.2 1008.1 1.2
18/03:30pm 26.4 28.4 22.9 81 2.4 N 17 26 9 14 1008.2 1008.1 0.2
18/03:00pm 30.3 34.4 23.2 65 4.9 NNE 7 9 4 5 1007.6 1007.5 0.0
18/02:30pm 29.8 33.6 23.5 69 4.3 NNE 9 13 5 7 1007.9 1007.8 0.0
18/02:00pm 28.7 33.2 24.0 76 3.3 N 7 9 4 5 1008.0 1007.9 0.0
18/01:30pm 27.2 29.9 23.4 80 2.6 N 15 22 8 12 1008.3 1008.2 0.0
18/01:00pm 27.3 29.2 23.5 80 2.6 N 19 24 10 13 1008.8 1008.7 0.0
18/12:30pm 31.4 34.9 23.5 63 5.5 NNW 11 17 6 9 1009.0 1008.9 0.0
18/12:00pm 32.3 36.0 23.3 59 6.2 NNE 9 15 5 8 1009.1 1009.0 0.0
18/11:30am 32.0 35.4 22.7 58 6.4 N 9 15 5 8 1009.7 1009.6 0.0
18/11:00am 32.5 36.6 24.0 61 5.9 N 9 17 5 9 1009.8 1009.7 0.0
18/10:30am 31.7 36.2 24.0 63 5.4 N 7 13 4 7 1010.0 1009.9 0.0
18/10:00am 31.4 36.1 24.3 66 5.0 NNW 7 13 4 7 1010.6 1010.5 0.0
18/09:30am 30.3 34.6 24.2 70 4.2 NNW 9 17 5 9 1011.1 1010.9 0.0
18/09:00am 29.6 33.4 23.5 69 4.2 NNW 9 13 5 7 1011.2 1011.0 0.2
18/08:30am 28.1 33.2 24.1 79 2.8 NNW 4 9 2 5 1010.7 1010.6 0.2
18/08:00am 26.9 32.5 24.9 89 1.4 N 4 6 2 3 1010.6 1010.5 0.2
18/07:30am 26.0 32.1 24.4 91 1.1 CALM 0 0 0 0 1010.6 1010.5 0.2
18/07:00am 25.3 31.0 23.7 91 1.1 CALM 0 0 0 0 1010.2 1010.1 0.2
18/06:30am 24.6 29.9 23.0 91 1.1 CALM 0 0 0 0 1009.7 1009.6 0.2
18/06:00am 24.9 30.3 23.3 91 1.1 CALM 0 0 0 0 1009.1 1009.0 0.2
18/05:30am 24.8 30.2 23.2 91 1.1 CALM 0 0 0 0 1008.6 1008.5 0.2
18/05:00am 24.6 29.9 23.0 91 1.1 CALM 0 0 0 0 1008.2 1008.1 0.2
18/04:30am 24.9 30.2 23.1 90 1.2 CALM 0 0 0 0 1008.2 1008.1 0.2
18/04:00am 25.0 30.4 23.2 90 1.2 CALM 0 0 0 0 1008.3 1008.2 0.2
18/03:30am 25.1 30.5 23.2 89 1.3 CALM 0 0 0 0 1008.2 1008.1 0.2
18/03:00am 25.2 30.5 23.1 88 1.4 CALM 0 0 0 0 1008.1 1008.0 0.2
18/02:30am 25.4 31.0 23.5 89 1.3 CALM 0 0 0 0 1008.0 1007.9 0.2
18/02:00am 25.3 29.7 23.4 89 1.3 NNW 6 6 3 3 1008.4 1008.3 0.2
18/01:30am 25.4 30.1 23.3 88 1.4 NW 4 4 2 2 1008.7 1008.6 0.2
18/01:00am 25.7 30.4 23.4 87 1.6 NNW 4 6 2 3 1009.0 1008.9 0.2
18/12:30am 25.7 29.9 23.2 86 1.7 NW 6 7 3 4 1009.5 1009.4 0.2
18/12:00am 26.0 30.1 23.3 85 1.8 NNW 7 9 4 5 1009.4 1009.3 0.2
 
Date/Time
CST
Temp
°C
App
Temp
°C
Dew
Point
°C
Rel
Hum
%
Delta-T
°C
Wind Press
QNH
hPa
Press
MSL
hPa
Rain since
9am
mm
Dir  Spd
km/h
Gust
km/h
Spd
kts
Gust
kts
17/11:30pm 26.1 31.0 23.6 86 1.7 N 4 6 2 3 1009.6 1009.5 0.2
17/11:00pm 26.3 30.8 23.6 85 1.8 N 6 7 3 4 1010.0 1009.9 0.2
17/10:30pm 26.3 30.6 23.6 85 1.8 NNW 7 9 4 5 1009.9 1009.8 0.2
17/10:00pm 26.4 30.6 23.5 84 2.0 NNW 7 7 4 4 1009.6 1009.5 0.2
17/09:30pm 26.7 31.0 23.6 83 2.1 NNW 7 9 4 5 1009.6 1009.5 0.2
17/09:00pm 27.2 31.3 23.9 82 2.3 N 9 13 5 7 1009.6 1009.5 0.2
17/08:30pm 27.8 32.9 24.0 80 2.6 NW 4 6 2 3 1009.2 1009.1 0.2
17/08:00pm 28.1 32.9 24.1 79 2.8 N 6 7 3 4 1008.9 1008.8 0.2
17/07:30pm 28.6 32.8 23.5 74 3.5 N 7 13 4 7 1008.4 1008.3 0.2
17/07:00pm 29.4 32.5 23.6 71 4.0 N 13 15 7 8 1007.6 1007.5 0.2
17/06:30pm 30.3 31.5 22.5 63 5.3 NNE 20 28 11 15 1007.4 1007.3 0.2
17/06:00pm 32.4 33.0 17.8 41 9.4 NNW 11 17 6 9 1006.9 1006.8 0.2
17/05:30pm 32.9 32.3 16.7 38 10.3 NW 15 20 8 11 1006.3 1006.2 0.2
17/05:00pm 33.4 31.8 14.9 32 11.4 NNW 17 22 9 12 1006.0 1005.9 0.2
17/04:30pm 33.6 31.8 15.6 34 11.3 NW 19 24 10 13 1005.8 1005.7 0.2
17/04:00pm 33.9 35.1 20.6 45 8.9 NW 15 22 8 12 1005.8 1005.7 0.2
17/03:30pm 33.5 35.2 21.0 48 8.4 NW 13 20 7 11 1005.9 1005.8 0.2
17/03:00pm 32.7 35.1 21.5 51 7.6 N 11 22 6 12 1006.3 1006.2 0.2
17/02:30pm 33.6 35.5 21.4 48 8.3 NNW 13 19 7 10 1006.9 1006.8 0.2
17/02:00pm 33.5 35.6 21.0 48 8.4 NNW 11 19 6 10 1007.1 1007.0 0.2
17/01:30pm 32.9 35.4 22.4 54 7.2 NNW 13 19 7 10 1007.4 1007.3 0.2
17/01:00pm 32.7 35.9 23.1 57 6.6 N 11 19 6 10 1007.5 1007.4 0.2
17/12:30pm 31.5 34.4 22.5 59 6.2 N 11 15 6 8 1007.9 1007.8 0.2
17/12:00pm 31.9 35.2 23.2 60 6.0 NNW 11 17 6 9 1008.2 1008.1 0.2
17/11:30am 31.9 36.0 24.0 63 5.5 NNW 9 17 5 9 1008.7 1008.6 0.2
17/11:00am 31.3 35.3 24.4 66 4.8 NNW 11 17 6 9 1008.9 1008.8 0.2
17/10:30am 30.8 35.1 24.2 68 4.6 NW 9 20 5 11 1009.1 1009.0 0.2
17/10:00am 30.3 35.2 24.7 72 3.9 N 7 11 4 6 1009.2 1009.1 0.2
17/09:30am 29.3 33.6 23.7 72 3.9 N 7 13 4 7 1009.1 1009.0 0.0
17/09:00am 28.6 33.7 24.6 79 2.8 N 6 9 3 5 1009.2 1009.1 14.8
17/08:30am 27.7 32.6 23.7 79 2.8 N 4 6 2 3 1009.2 1009.1 14.8
17/08:00am 26.2 31.8 24.2 89 1.4 NW 2 6 1 3 1009.1 1009.0 14.8
17/07:30am 25.1 30.8 23.7 92 1.0 CALM 0 0 0 0 1008.7 1008.6 14.8
17/07:00am 24.3 29.5 22.9 92 0.9 CALM 0 0 0 0 1008.3 1008.2 14.8
17/06:30am 24.0 28.7 22.6 92 0.9 WSW 2 2 1 1 1007.8 1007.7 14.8
17/06:00am 24.0 29.1 22.6 92 0.9 CALM 0 0 0 0 1007.6 1007.5 14.8
17/05:30am 24.0 27.9 22.6 92 0.9 WNW 6 7 3 4 1007.2 1007.1 14.8
17/05:00am 24.2 28.6 22.8 92 0.9 W 4 4 2 2 1007.0 1006.9 14.8
17/04:30am 24.3 28.8 22.9 92 0.9 N 4 4 2 2 1006.7 1006.6 14.8
17/04:00am 24.4 29.6 22.8 91 1.1 CALM 0 0 0 0 1006.7 1006.6 14.8
17/03:30am 24.6 29.9 23.0 91 1.1 CALM 0 0 0 0 1006.7 1006.6 14.8
17/03:00am 24.7 30.0 23.1 91 1.1 CALM 0 0 0 0 1006.8 1006.7 14.8
17/02:30am 24.6 29.6 23.2 92 1.0 N 2 4 1 2 1007.1 1007.0 14.8
17/02:00am 24.4 28.4 22.8 91 1.1 N 6 7 3 4 1007.3 1007.2 14.8
17/01:30am 24.4 29.3 23.0 92 0.9 NNW 2 4 1 2 1007.5 1007.4 14.8
17/01:00am 24.4 28.9 23.0 92 0.9 N 4 6 2 3 1007.6 1007.5 14.8
17/12:30am 24.6 29.5 23.0 91 1.1 NNE 2 2 1 1 1007.9 1007.8 14.8
17/12:00am 24.5 29.3 22.9 91 1.1 N 2 4 1 2 1008.2 1008.1 14.8
 
Date/Time
CST
Temp
°C
App
Temp
°C
Dew
Point
°C
Rel
Hum
%
Delta-T
°C
Wind Press
QNH
hPa
Press
MSL
hPa
Rain since
9am
mm
Dir  Spd
km/h
Gust
km/h
Spd
kts
Gust
kts
16/11:30pm 24.7 30.0 23.1 91 1.1 CALM 0 0 0 0 1008.3 1008.2 14.8
16/11:00pm 24.9 29.1 23.1 90 1.2 W 6 6 3 3 1008.2 1008.1 14.8
16/10:30pm 24.9 29.5 23.1 90 1.2 W 4 6 2 3 1008.0 1007.9 14.8
16/10:00pm 24.9 29.5 23.1 90 1.2 W 4 6 2 3 1007.9 1007.8 14.8
16/09:30pm 25.2 29.5 23.3 89 1.3 WSW 6 7 3 4 1007.9 1007.8 14.8
16/09:00pm 25.6 30.9 23.7 89 1.3 WSW 2 4 1 2 1007.4 1007.3 14.8
16/08:30pm 25.6 30.7 24.0 91 1.1 SSW 4 4 2 2 1007.1 1007.0 14.8
16/08:00pm 25.5 30.5 23.9 91 1.1 W 4 4 2 2 1007.0 1006.9 14.8
16/07:30pm 25.5 30.9 23.9 91 1.1 NW 2 4 1 2 1006.7 1006.6 14.8
16/07:00pm 25.6 31.0 23.8 90 1.2 WNW 2 4 1 2 1006.8 1006.7 14.8
16/06:30pm 25.5 30.0 23.7 90 1.2 N 6 7 3 4 1006.7 1006.6 14.8
16/06:00pm 25.5 29.8 23.7 90 1.2 N 7 9 4 5 1006.3 1006.2 14.8
16/05:30pm 25.9 30.5 24.1 90 1.2 WSW 7 11 4 6 1006.4 1006.3 14.8
16/05:00pm 25.2 28.8 23.1 88 1.4 W 9 11 5 6 1006.7 1006.6 14.8
16/04:30pm 26.5 27.3 21.7 75 3.2 WSW 20 41 11 22 1006.7 1006.6 14.2
16/04:29pm 27.2 29.0 23.2 79 2.7 SW 19 37 10 20 1006.6 1006.5 14.2
16/04:00pm 26.6 31.5 24.3 87 1.6 W 6 13 3 7 1006.1 1006.0 14.2
16/03:37pm 27.4 28.5 22.4 74 3.4 W 20 44 11 24 1006.0 1005.9 10.0
16/03:30pm 29.0 31.7 23.4 72 3.9 WSW 15 20 8 11 1005.8 1005.7 9.4
16/03:00pm 28.6 31.1 23.1 72 3.8 WSW 15 20 8 11 1005.7 1005.6 9.4
16/02:30pm 30.8 33.8 24.0 67 4.7 WNW 15 26 8 14 1005.8 1005.7 9.4
16/02:00pm 29.6 34.0 24.5 74 3.6 NNW 9 13 5 7 1006.2 1006.1 9.4

Latest Capital City Observations: Canberra | Sydney | Melbourne | Brisbane | Adelaide | Perth | Hobart | Darwin

Other Formats:

Comma delimited format used in spreadsheet applications
http://www.bom.gov.au/fwo/IDD60901/IDD60901.95121.axf

JavaScript Object Notation format (JSON) in row-major order
http://www.bom.gov.au/fwo/IDD60901/IDD60901.95121.json